Time;durP1;ratioP1;P1;durP2;ratioP2;P2;SDS_P1;SDS_P2;PMS_P1;PMS_P2;Temp;Humidity;BMP_temperature;BMP_pressure;BME280_temperature;BME280_humidity;BME280_pressure;Samples;Min_cycle;Max_cycle;Signal;HPM_P1;HPM_P2
2022/01/14 00:01:34;;;;;;;0.20;0.20;;;;;;;18.76;37.51;103358.50;5110649;28;20078;-43
2022/01/14 00:04:00;;;;;;;0.30;0.30;;;;;;;18.76;37.42;103352.13;5127532;27;20042;-44
2022/01/14 00:06:26;;;;;;;0.20;0.20;;;;;;;18.77;37.36;103348.31;5126265;27;20050;-43
2022/01/14 00:08:54;;;;;;;0.30;0.30;;;;;;;18.77;37.30;103348.31;5131476;27;20058;-44
2022/01/14 00:11:20;;;;;;;0.30;0.30;;;;;;;18.76;37.38;103349.38;5128377;27;20039;-43
2022/01/14 00:13:56;;;;;;;0.30;0.30;;;;;;;18.73;37.67;103347.88;5129592;27;20099;-43
2022/01/14 00:16:22;;;;;;;0.20;0.20;;;;;;;18.74;37.47;103351.53;5128879;27;20532;-43
2022/01/14 00:18:47;;;;;;;0.20;0.20;;;;;;;18.74;37.38;103338.56;5132139;27;20039;-43
2022/01/14 00:21:13;;;;;;;0.20;0.20;;;;;;;18.75;37.35;103343.00;5107952;28;20497;-43
2022/01/14 00:23:41;;;;;;;0.20;0.20;;;;;;;18.74;37.51;103340.47;5128725;27;20031;-43
2022/01/14 00:31:42;;;;;;;0.30;0.30;;;;;;;18.74;37.43;103340.47;5112830;27;20092;-44
2022/01/14 00:34:10;;;;;;;0.20;0.20;;;;;;;18.74;37.43;103340.47;5129534;27;20092;-44
2022/01/14 00:36:35;;;;;;;0.20;0.20;;;;;;;18.75;37.56;103336.66;5131899;27;20086;-43
2022/01/14 00:39:01;;;;;;;0.30;0.30;;;;;;;18.74;37.58;103338.56;5129228;27;20055;-43
2022/01/14 00:41:27;;;;;;;0.20;0.20;;;;;;;18.73;37.53;103339.59;5129991;27;20039;-43
2022/01/14 00:44:00;;;;;;;0.30;0.30;;;;;;;18.75;37.69;103342.16;5126758;27;20039;-43
2022/01/14 00:46:25;;;;;;;0.20;0.20;;;;;;;18.73;37.44;103336.00;5128787;27;20039;-43
2022/01/14 00:48:51;;;;;;;0.30;0.30;;;;;;;18.72;37.52;103334.31;5126429;27;20043;-45
2022/01/14 00:51:17;;;;;;;0.20;0.20;;;;;;;18.73;37.56;103338.75;5129153;27;20489;-44
2022/01/14 00:53:42;;;;;;;0.20;0.20;;;;;;;18.72;37.63;103340.69;5111750;27;20050;-44
2022/01/14 00:56:21;;;;;;;0.20;0.20;;;;;;;18.72;37.50;103342.59;5132427;27;20039;-44
2022/01/14 00:59:18;;;;;;;0.20;0.20;;;;;;;18.74;37.54;103346.00;5134360;27;20065;-44
2022/01/14 01:01:32;;;;;;;0.20;0.20;;;;;;;18.72;37.59;103348.97;5099237;27;20067;-44
2022/01/14 01:03:58;;;;;;;0.20;0.20;;;;;;;18.73;37.51;103347.03;5130545;27;20084;-45
2022/01/14 01:06:24;;;;;;;0.20;0.20;;;;;;;18.70;37.66;103345.59;5127157;27;20104;-43
2022/01/14 01:08:51;;;;;;;0.20;0.20;;;;;;;18.71;37.55;103344.53;5127715;27;21200;-43
2022/01/14 01:11:24;;;;;;;0.20;0.20;;;;;;;18.72;37.63;103345.38;5127845;27;20048;-43
2022/01/14 01:13:59;;;;;;;0.30;0.30;;;;;;;18.72;37.60;103345.38;5106245;28;20139;-43
2022/01/14 01:16:25;;;;;;;0.30;0.30;;;;;;;18.71;37.69;103339.00;5126949;27;20473;-44
2022/01/14 01:18:51;;;;;;;0.30;0.30;;;;;;;18.70;37.73;103345.59;5107052;27;20457;-44
2022/01/14 01:21:16;;;;;;;0.30;0.30;;;;;;;18.72;37.49;103337.09;5124281;27;20047;-43
2022/01/14 01:23:42;;;;;;;0.30;0.30;;;;;;;18.71;37.57;103330.72;5126359;27;20062;-44
2022/01/14 01:26:14;;;;;;;0.30;0.30;;;;;;;18.71;37.85;103327.94;5127004;27;20167;-43
2022/01/14 01:28:56;;;;;;;0.20;0.20;;;;;;;18.71;37.63;103327.13;5128358;27;20057;-45
2022/01/14 01:31:52;;;;;;;0.20;0.20;;;;;;;18.71;37.74;103341.75;5126395;27;20082;-45
2022/01/14 01:34:11;;;;;;;0.20;0.20;;;;;;;18.72;37.55;103331.56;5097026;27;20049;-43
2022/01/14 01:36:38;;;;;;;0.25;0.25;;;;;;;18.72;37.50;103326.88;5114359;27;20047;-43
2022/01/14 01:39:06;;;;;;;0.30;0.30;;;;;;;18.71;37.78;103329.88;5130785;27;20045;-44
2022/01/14 01:41:34;;;;;;;0.20;0.20;;;;;;;18.70;37.80;103325.44;5093731;27;20047;-43
2022/01/14 01:44:00;;;;;;;0.20;0.20;;;;;;;18.69;37.72;103327.31;5114938;28;20050;-43
2022/01/14 01:46:26;;;;;;;0.20;0.20;;;;;;;18.70;37.64;103328.19;5129726;27;20039;-42
2022/01/14 01:48:52;;;;;;;0.28;0.28;;;;;;;18.71;37.57;103335.38;5132709;27;20036;-43
2022/01/14 01:51:19;;;;;;;0.20;0.20;;;;;;;18.71;37.74;103332.63;5126539;27;20068;-43
2022/01/14 01:53:45;;;;;;;0.20;0.20;;;;;;;18.70;37.72;103319.91;5130204;27;20484;-42
2022/01/14 01:56:11;;;;;;;0.20;0.20;;;;;;;18.70;37.62;103311.63;5111950;28;20398;-43
2022/01/14 01:58:37;;;;;;;0.20;0.20;;;;;;;18.69;37.86;103307.13;5134417;27;20042;-43
2022/01/14 02:01:04;;;;;;;0.20;0.20;;;;;;;18.69;37.60;103308.00;5131741;27;20059;-44
2022/01/14 02:03:30;;;;;;;0.30;0.30;;;;;;;18.72;37.58;103312.22;5129931;27;20092;-41
2022/01/14 02:05:56;;;;;;;0.20;0.20;;;;;;;18.69;37.71;103315.41;5129325;27;20047;-43
2022/01/14 02:08:21;;;;;;;0.20;0.20;;;;;;;18.69;37.80;103304.34;5132280;27;20418;-43
2022/01/14 02:10:47;;;;;;;0.20;0.20;;;;;;;18.70;37.76;103306.09;5129713;27;20047;-42
2022/01/14 02:13:13;;;;;;;0.20;0.20;;;;;;;18.70;37.72;103303.34;5131758;27;20047;-43
2022/01/14 02:15:46;;;;;;;0.20;0.20;;;;;;;18.70;37.56;103311.63;5115845;27;20088;-43
2022/01/14 02:23:53;;;;;;;0.20;0.20;;;;;;;18.67;37.78;103310.09;5112179;27;20291;-44
2022/01/14 02:26:20;;;;;;;0.22;0.22;;;;;;;18.67;37.64;103296.31;5128876;27;20050;-44
2022/01/14 02:28:47;;;;;;;0.20;0.20;;;;;;;18.66;37.74;103291.84;5126494;27;20107;-43
2022/01/14 02:31:13;;;;;;;0.30;0.30;;;;;;;18.68;37.75;103297.16;5111297;27;20480;-43
2022/01/14 02:33:39;;;;;;;0.20;0.20;;;;;;;18.67;37.83;103307.34;5124336;27;20039;-43
2022/01/14 02:36:05;;;;;;;0.20;0.20;;;;;;;18.67;37.86;103300.97;5110650;28;20089;-43
2022/01/14 02:38:31;;;;;;;0.20;0.20;;;;;;;18.67;37.72;103299.06;5111377;27;20481;-44
2022/01/14 02:40:57;;;;;;;0.20;0.20;;;;;;;18.68;37.68;103306.28;5127666;27;20505;-43
2022/01/14 02:43:25;;;;;;;0.40;0.40;;;;;;;18.68;37.77;103306.28;5115052;27;20469;-43
2022/01/14 02:45:53;;;;;;;0.20;0.20;;;;;;;18.68;37.77;103297.16;5128913;27;20371;-44
2022/01/14 02:48:22;;;;;;;0.20;0.20;;;;;;;18.68;37.61;103302.66;5112935;27;20071;-43
2022/01/14 02:50:59;;;;;;;0.20;0.20;;;;;;;18.68;37.68;103291.63;5128150;27;20053;-44
2022/01/14 02:53:41;;;;;;;0.20;0.20;;;;;;;18.69;37.75;103287.78;5123567;27;20071;-42
2022/01/14 02:56:11;;;;;;;0.20;0.20;;;;;;;18.69;37.77;103274.00;5104742;27;20071;-41
2022/01/14 02:58:37;;;;;;;0.20;0.20;;;;;;;18.66;37.58;103280.81;5106176;27;20049;-44
2022/01/14 03:01:06;;;;;;;0.30;0.30;;;;;;;18.66;37.80;103280.81;5104425;28;20050;-44
2022/01/14 03:03:32;;;;;;;0.20;0.20;;;;;;;18.67;37.86;103278.91;5104418;27;20051;-43
2022/01/14 03:06:00;;;;;;;0.20;0.20;;;;;;;18.67;37.78;103278.91;5129727;27;20307;-43
2022/01/14 03:08:25;;;;;;;0.20;0.20;;;;;;;18.67;37.72;103274.22;5112656;27;20051;-44
2022/01/14 03:11:02;;;;;;;0.30;0.30;;;;;;;18.67;37.90;103268.69;5132865;27;20233;-44
2022/01/14 03:13:28;;;;;;;0.20;0.20;;;;;;;18.66;37.66;103268.94;5119424;27;20065;-43
2022/01/14 03:15:54;;;;;;;0.30;0.30;;;;;;;18.65;37.84;103268.09;5128248;27;20115;-41
2022/01/14 03:18:32;;;;;;;0.20;0.20;;;;;;;18.65;37.89;103276.38;5137429;27;20047;-43
2022/01/14 03:21:10;;;;;;;0.30;0.30;;;;;;;18.65;37.87;103264.47;5126637;27;20071;-43
2022/01/14 03:23:43;;;;;;;0.20;0.20;;;;;;;18.66;37.73;103263.41;5124401;27;20186;-43
2022/01/14 03:26:09;;;;;;;0.20;0.20;;;;;;;18.65;37.70;103264.47;5128154;27;20068;-44
2022/01/14 03:28:34;;;;;;;0.25;0.25;;;;;;;18.63;37.63;103261.94;5130151;27;20047;-44
2022/01/14 03:31:00;;;;;;;0.30;0.30;;;;;;;18.66;37.73;103267.03;5129674;27;20114;-43
2022/01/14 03:33:25;;;;;;;0.20;0.20;;;;;;;18.66;37.73;103264.25;5132106;27;20043;-43
2022/01/14 03:35:51;;;;;;;0.20;0.20;;;;;;;18.66;37.79;103261.50;5132788;27;20067;-43
2022/01/14 03:38:17;;;;;;;0.20;0.20;;;;;;;18.65;37.66;103267.22;5110508;27;20039;-43
2022/01/14 03:40:44;;;;;;;0.20;0.20;;;;;;;18.65;37.87;103261.69;5109885;27;20754;-43
2022/01/14 03:43:10;;;;;;;0.20;0.20;;;;;;;18.63;37.69;103253.66;5110722;27;20107;-43
2022/01/14 03:45:38;;;;;;;0.20;0.20;;;;;;;18.64;37.96;103240.69;5109107;27;20103;-43
2022/01/14 03:48:05;;;;;;;0.20;0.20;;;;;;;18.64;37.72;103247.06;5130120;27;20165;-43
2022/01/14 03:50:31;;;;;;;0.30;0.30;;;;;;;18.63;37.90;103227.97;5127070;27;20394;-44
2022/01/14 03:52:57;;;;;;;0.20;0.20;;;;;;;18.65;37.68;103232.22;5124233;27;20046;-43
2022/01/14 03:55:22;;;;;;;0.20;0.20;;;;;;;18.65;37.97;103228.56;5130396;27;20034;-43
2022/01/14 03:57:49;;;;;;;0.30;0.30;;;;;;;18.65;37.90;103225.81;5111063;28;20050;-43
2022/01/14 04:00:16;;;;;;;0.30;0.30;;;;;;;18.64;37.85;103224.13;5131214;27;20053;-43
2022/01/14 04:02:42;;;;;;;0.30;0.30;;;;;;;18.64;37.93;103216.69;5126822;27;20378;-43
2022/01/14 04:05:08;;;;;;;0.20;0.20;;;;;;;18.65;37.85;103214.78;5133363;27;20265;-43
2022/01/14 04:07:34;;;;;;;0.30;0.30;;;;;;;18.63;37.84;103217.78;5128749;27;20119;-43
2022/01/14 04:09:59;;;;;;;0.30;0.30;;;;;;;18.65;37.83;103217.53;5126338;27;20848;-43
2022/01/14 04:12:43;;;;;;;0.20;0.20;;;;;;;18.64;37.76;103218.63;5129648;27;20078;-43
2022/01/14 04:15:43;;;;;;;0.20;0.20;;;;;;;18.64;37.73;103211.19;5129267;27;20075;-43
2022/01/14 04:17:55;;;;;;;0.30;0.30;;;;;;;18.63;37.84;103212.25;5109590;27;20562;-43
2022/01/14 04:20:21;;;;;;;0.30;0.30;;;;;;;18.63;37.90;103215.00;5126628;27;20062;-43
2022/01/14 04:22:48;;;;;;;0.20;0.20;;;;;;;18.63;37.93;103214.16;5123918;27;20397;-43
2022/01/14 04:25:15;;;;;;;0.20;0.20;;;;;;;18.63;37.93;103216.94;5129376;27;20482;-43
2022/01/14 04:27:40;;;;;;;0.30;0.30;;;;;;;18.63;37.82;103214.16;5110325;28;20053;-43
2022/01/14 04:30:07;;;;;;;0.30;0.30;;;;;;;18.64;37.88;103222.22;5126334;27;20036;-44
2022/01/14 04:32:33;;;;;;;0.20;0.20;;;;;;;18.62;37.94;103213.31;5127501;27;20039;-43
2022/01/14 04:34:58;;;;;;;0.30;0.30;;;;;;;18.62;37.84;103212.47;5124078;27;20046;-43
2022/01/14 04:37:24;;;;;;;0.20;0.20;;;;;;;18.63;38.01;103211.41;5129969;27;20042;-43
2022/01/14 04:39:50;;;;;;;0.30;0.30;;;;;;;18.61;37.98;103208.88;5128460;27;20057;-43
2022/01/14 04:42:15;;;;;;;0.30;0.30;;;;;;;18.63;37.91;103216.94;5128131;27;20043;-43
2022/01/14 04:44:41;;;;;;;0.20;0.20;;;;;;;18.62;37.99;103210.56;5129420;27;20043;-43
2022/01/14 04:47:18;;;;;;;0.30;0.30;;;;;;;18.64;37.92;103202.06;5128053;27;20129;-43
2022/01/14 04:49:44;;;;;;;0.20;0.20;;;;;;;18.62;37.91;103213.31;5112603;28;20130;-43
2022/01/14 04:52:10;;;;;;;0.20;0.20;;;;;;;18.63;37.81;103216.94;5123126;27;20072;-46
2022/01/14 04:54:35;;;;;;;0.20;0.20;;;;;;;18.62;37.91;103215.25;5111928;27;20160;-43
2022/01/14 04:57:02;;;;;;;0.30;0.30;;;;;;;18.62;37.75;103204.22;5109340;27;20085;-43
2022/01/14 04:59:28;;;;;;;0.30;0.30;;;;;;;18.61;37.79;103211.66;5125696;27;20172;-43
2022/01/14 05:01:56;;;;;;;0.22;0.22;;;;;;;18.60;38.08;103198.88;5091552;27;20047;-43
2022/01/14 05:04:22;;;;;;;0.20;0.20;;;;;;;18.60;37.84;103193.38;5125692;27;20429;-43
2022/01/14 05:06:55;;;;;;;0.30;0.30;;;;;;;18.61;38.02;103195.09;5126912;27;20035;-43
2022/01/14 05:09:28;;;;;;;0.30;0.30;;;;;;;18.61;37.90;103188.69;5124560;27;20651;-43
2022/01/14 05:11:58;;;;;;;0.30;0.30;;;;;;;18.60;37.97;103190.59;5123545;27;20086;-43
2022/01/14 05:14:24;;;;;;;0.20;0.20;;;;;;;18.61;37.98;103186.81;5127914;27;20053;-43
2022/01/14 05:16:49;;;;;;;0.20;0.20;;;;;;;18.62;37.91;103190.41;5124663;27;20043;-43
2022/01/14 05:19:15;;;;;;;0.30;0.30;;;;;;;18.61;37.92;103195.09;5111143;27;20051;-43
2022/01/14 05:21:41;;;;;;;0.20;0.20;;;;;;;18.62;37.86;103201.44;5125818;27;20039;-43
2022/01/14 05:24:07;;;;;;;0.20;0.20;;;;;;;18.61;37.96;103199.72;5125527;27;20043;-43
2022/01/14 05:26:32;;;;;;;0.20;0.20;;;;;;;18.61;38.09;103191.44;5111101;27;20111;-45
2022/01/14 05:28:58;;;;;;;0.20;0.20;;;;;;;18.60;37.88;103198.88;5124038;27;20039;-43
2022/01/14 05:31:47;;;;;;;0.20;0.20;;;;;;;18.60;37.90;103196.13;5125269;27;20035;-43
2022/01/14 05:34:13;;;;;;;0.20;0.20;;;;;;;18.60;38.13;103195.28;5126250;27;20396;-43
2022/01/14 05:36:39;;;;;;;0.20;0.20;;;;;;;18.60;37.83;103206.31;5129593;27;20139;-43
2022/01/14 05:39:05;;;;;;;0.20;0.20;;;;;;;18.61;37.96;103203.38;5130227;27;20075;-46
2022/01/14 05:41:31;;;;;;;0.20;0.20;;;;;;;18.60;38.01;103203.56;5112347;27;20043;-44
2022/01/14 05:43:57;;;;;;;0.30;0.30;;;;;;;18.59;38.08;103205.47;5134508;27;20050;-48
2022/01/14 05:46:22;;;;;;;0.20;0.20;;;;;;;18.59;38.13;103202.72;5128354;27;20049;-43
2022/01/14 05:48:48;;;;;;;0.20;0.20;;;;;;;18.61;38.11;103199.72;5129645;27;20043;-46
2022/01/14 05:51:14;;;;;;;0.20;0.20;;;;;;;18.59;37.89;103194.44;5131375;27;21165;-46
2022/01/14 05:53:40;;;;;;;0.20;0.20;;;;;;;18.60;38.04;103196.13;5131927;27;20064;-43
2022/01/14 05:56:05;;;;;;;0.20;0.20;;;;;;;18.60;37.91;103201.66;5130638;27;20043;-47
2022/01/14 05:58:31;;;;;;;0.30;0.30;;;;;;;18.59;37.97;103197.22;5132502;27;20084;-45
2022/01/14 06:00:57;;;;;;;0.20;0.20;;;;;;;18.59;37.88;103201.88;5122758;27;20172;-41
2022/01/14 06:03:22;;;;;;;0.30;0.30;;;;;;;18.60;38.05;103195.28;5129121;27;20521;-44
2022/01/14 06:05:49;;;;;;;0.30;0.30;;;;;;;18.59;37.97;103197.22;5126731;27;20047;-43
2022/01/14 06:08:14;;;;;;;0.20;0.20;;;;;;;18.58;37.97;103201.03;5131393;27;20058;-44
2022/01/14 06:10:40;;;;;;;0.20;0.20;;;;;;;18.59;37.76;103208.25;5129708;27;20039;-43
2022/01/14 06:13:06;;;;;;;0.20;0.20;;;;;;;18.58;37.98;103203.78;5128666;27;20081;-43
2022/01/14 06:15:32;;;;;;;0.30;0.30;;;;;;;18.58;38.10;103198.28;5129349;27;20118;-43
2022/01/14 06:17:57;;;;;;;0.30;0.30;;;;;;;18.60;37.90;103198.03;5112541;27;20052;-44
2022/01/14 06:20:23;;;;;;;0.30;0.30;;;;;;;18.57;37.87;103191.06;5120109;27;20043;-44
2022/01/14 06:22:49;;;;;;;0.30;0.30;;;;;;;18.59;38.11;103205.47;5122723;27;20473;-44
2022/01/14 06:25:15;;;;;;;0.20;0.20;;;;;;;18.59;37.75;103199.97;5126452;27;20262;-43
2022/01/14 06:27:41;;;;;;;0.25;0.25;;;;;;;18.60;37.96;103206.31;5129402;27;20093;-47
2022/01/14 06:30:07;;;;;;;0.30;0.30;;;;;;;18.59;38.05;103205.47;5111000;27;20038;-45
2022/01/14 06:32:35;;;;;;;0.30;0.30;;;;;;;18.59;38.16;103202.72;5122750;27;20039;-47
2022/01/14 06:35:02;;;;;;;0.20;0.20;;;;;;;18.59;37.94;103196.38;5103877;27;20479;-43
2022/01/14 06:37:27;;;;;;;0.30;0.30;;;;;;;18.57;37.96;103199.34;5124143;27;20046;-43
2022/01/14 06:39:54;;;;;;;0.30;0.30;;;;;;;18.60;37.86;103203.56;5122302;27;20129;-47
2022/01/14 06:42:20;;;;;;;0.20;0.20;;;;;;;18.60;38.03;103207.16;5103156;27;20047;-44
2022/01/14 06:44:46;;;;;;;0.30;0.30;;;;;;;18.58;38.21;103200.19;5127785;27;20051;-45
2022/01/14 06:47:12;;;;;;;0.20;0.20;;;;;;;18.58;37.91;103195.53;5117793;27;20060;-44
2022/01/14 06:49:37;;;;;;;0.30;0.30;;;;;;;18.58;37.95;103198.28;5126092;27;20035;-45
2022/01/14 06:52:03;;;;;;;0.20;0.20;;;;;;;18.57;38.00;103193.84;5119241;27;20039;-46
2022/01/14 06:54:29;;;;;;;0.20;0.20;;;;;;;18.57;37.95;103196.59;5113853;27;20431;-45
2022/01/14 06:56:55;;;;;;;0.20;0.20;;;;;;;18.57;38.15;103193.84;5121997;27;20039;-44
2022/01/14 06:59:20;;;;;;;0.30;0.30;;;;;;;18.59;37.95;103191.69;5124174;27;20043;-44
2022/01/14 07:01:46;;;;;;;0.30;0.30;;;;;;;18.59;37.94;103188.94;5118112;27;20075;-46
2022/01/14 07:04:12;;;;;;;0.30;0.30;;;;;;;18.57;38.14;103188.31;5123616;27;20053;-45
2022/01/14 07:06:38;;;;;;;0.20;0.20;;;;;;;18.59;38.00;103183.41;5119096;27;20813;-44
2022/01/14 07:09:03;;;;;;;0.30;0.30;;;;;;;18.58;38.04;103175.34;5121371;27;20364;-44
2022/01/14 07:11:35;;;;;;;0.20;0.20;;;;;;;18.57;37.89;103182.78;5122733;27;20427;-44
2022/01/14 07:14:01;;;;;;;0.20;0.20;;;;;;;18.58;37.80;103178.13;5121044;27;20126;-44
2022/01/14 07:16:26;;;;;;;0.30;0.30;;;;;;;18.56;37.94;103179.16;5099197;28;20386;-44
2022/01/14 07:18:52;;;;;;;0.20;0.20;;;;;;;18.58;37.89;103187.25;5096205;27;20055;-45
2022/01/14 07:21:18;;;;;;;0.20;0.20;;;;;;;18.58;37.87;103175.34;5118989;27;20108;-44
2022/01/14 07:23:43;;;;;;;0.30;0.30;;;;;;;18.56;37.85;103173.66;5117620;27;20047;-47
2022/01/14 07:26:09;;;;;;;0.20;0.20;;;;;;;18.56;37.89;103179.16;5118078;27;20054;-44
2022/01/14 07:28:35;;;;;;;0.20;0.20;;;;;;;18.48;36.49;103173.94;5121161;27;20051;-42
2022/01/14 07:31:00;;;;;;;0.20;0.20;;;;;;;18.51;37.64;103181.75;5122438;27;20050;-33
2022/01/14 07:33:26;;;;;;;0.30;0.30;;;;;;;18.58;37.59;103183.63;5118950;27;20043;-33
2022/01/14 07:35:52;;;;;;;0.20;0.20;;;;;;;18.58;37.59;103180.88;5118750;27;20273;-32
2022/01/14 07:38:17;;;;;;;0.20;0.20;;;;;;;18.60;37.51;103179.56;5120491;27;20046;-34
2022/01/14 07:40:43;;;;;;;0.20;0.20;;;;;;;18.61;37.65;103199.72;5122086;27;20035;-38
2022/01/14 07:43:09;;;;;;;0.20;0.20;;;;;;;18.61;37.66;103196.97;5115473;27;20703;-37
2022/01/14 07:45:34;;;;;;;0.30;0.30;;;;;;;18.62;37.66;103187.66;5119019;27;20215;-36
2022/01/14 07:48:00;;;;;;;0.25;0.25;;;;;;;18.61;37.60;103185.94;5121050;27;20179;-39
2022/01/14 07:50:28;;;;;;;0.30;0.30;;;;;;;18.63;37.56;103192.94;5120390;27;20091;-37
2022/01/14 07:52:53;;;;;;;0.30;0.30;;;;;;;18.63;37.55;103197.63;5112904;27;20058;-37
2022/01/14 07:55:19;;;;;;;0.25;0.25;;;;;;;18.37;37.38;103199.47;5117017;27;20043;-44
2022/01/14 07:57:45;;;;;;;0.30;0.30;;;;;;;18.44;36.91;103192.00;5117427;27;20062;-47
2022/01/14 08:00:11;;;;;;;0.20;0.20;;;;;;;18.57;37.45;103196.59;5113107;27;20100;-40
2022/01/14 08:02:37;;;;;;;0.30;0.30;;;;;;;18.67;37.40;103201.63;5119092;27;20049;-36
2022/01/14 08:05:04;;;;;;;0.30;0.30;;;;;;;18.70;37.44;103201.22;5111409;27;20054;-35
2022/01/14 08:07:33;;;;;;;0.20;0.20;;;;;;;18.72;37.71;103194.38;5076934;27;20533;-34
2022/01/14 08:09:58;;;;;;;0.20;0.20;;;;;;;18.74;37.45;103188.66;5109308;27;20047;-36
2022/01/14 08:12:24;;;;;;;0.20;0.20;;;;;;;18.76;37.73;103194.78;5109818;27;20091;-35
2022/01/14 08:14:50;;;;;;;0.20;0.20;;;;;;;18.77;37.56;103189.03;5095675;27;20429;-35
2022/01/14 08:17:18;;;;;;;0.28;0.28;;;;;;;18.79;37.50;103178.63;5111364;27;20047;-34
2022/01/14 08:19:44;;;;;;;0.30;0.30;;;;;;;18.78;37.51;103176.94;5089019;28;20051;-34
2022/01/14 08:22:10;;;;;;;0.20;0.20;;;;;;;18.81;37.35;103172.88;5110210;27;20321;-35
2022/01/14 08:24:36;;;;;;;0.20;0.20;;;;;;;18.83;37.54;103178.19;5110065;27;20680;-41
2022/01/14 08:27:03;;;;;;;0.20;0.20;;;;;;;18.84;37.34;103182.63;5088886;28;20100;-36
2022/01/14 08:29:30;;;;;;;0.20;0.20;;;;;;;18.84;37.58;103175.19;5116190;27;20051;-36
2022/01/14 08:31:55;;;;;;;0.20;0.20;;;;;;;18.84;37.34;103175.19;5094332;28;20058;-36
2022/01/14 08:34:23;;;;;;;0.30;0.30;;;;;;;18.87;37.51;103184.94;5105581;27;20051;-35
2022/01/14 08:36:48;;;;;;;0.30;0.30;;;;;;;18.87;37.60;103190.44;5099610;28;20047;-36
2022/01/14 08:39:14;;;;;;;0.20;0.20;;;;;;;18.88;37.38;103189.41;5111472;27;20043;-34
2022/01/14 08:41:40;;;;;;;0.20;0.20;;;;;;;18.90;37.16;103198.28;5111079;27;20388;-34
2022/01/14 08:44:06;;;;;;;0.20;0.20;;;;;;;18.91;37.42;103197.22;5112622;27;20093;-35
2022/01/14 08:46:49;;;;;;;0.20;0.20;;;;;;;18.91;37.42;103189.81;5110484;27;20116;-35
2022/01/14 08:49:15;;;;;;;0.20;0.20;;;;;;;18.92;37.38;103183.22;5091151;27;20447;-38
2022/01/14 08:51:40;;;;;;;0.30;0.30;;;;;;;18.94;37.49;103188.50;5107524;27;20035;-43
2022/01/14 08:54:07;;;;;;;0.30;0.30;;;;;;;18.96;37.38;103189.97;5109815;27;20429;-39
2022/01/14 08:56:32;;;;;;;0.30;0.30;;;;;;;18.96;37.24;103175.31;5105817;27;20051;-45
2022/01/14 08:58:59;;;;;;;0.30;0.30;;;;;;;18.97;37.26;103186.13;5105367;27;20049;-38
2022/01/14 09:01:24;;;;;;;0.30;0.30;;;;;;;18.96;37.43;103189.13;5090900;27;20418;-35
2022/01/14 09:03:50;;;;;;;0.20;0.20;;;;;;;18.98;37.41;103198.03;5105860;27;20762;-39
2022/01/14 09:06:16;;;;;;;0.30;0.30;;;;;;;18.98;37.25;103209.06;5095132;27;20142;-37
2022/01/14 09:08:41;;;;;;;0.30;0.30;;;;;;;19.03;36.29;103184.38;5106167;27;20039;-35
2022/01/14 09:11:08;;;;;;;0.20;0.20;;;;;;;19.08;36.71;103184.53;5104842;27;20123;-35
2022/01/14 09:13:34;;;;;;;0.20;0.20;;;;;;;19.08;36.53;103180.94;5114530;27;20068;-40
2022/01/14 09:16:00;;;;;;;0.20;0.20;;;;;;;19.08;36.66;103183.69;5100992;27;20361;-35
2022/01/14 09:18:26;;;;;;;0.30;0.30;;;;;;;18.98;36.56;103182.28;5115400;27;20359;-41
2022/01/14 09:20:51;;;;;;;0.30;0.30;;;;;;;19.05;36.73;103185.03;5097280;28;20371;-37
2022/01/14 09:23:23;;;;;;;0.28;0.28;;;;;;;19.08;36.77;103180.94;5098065;27;20131;-35
2022/01/14 09:25:50;;;;;;;0.30;0.30;;;;;;;19.09;36.74;103202.84;5094724;27;20373;-45
2022/01/14 09:28:16;;;;;;;0.30;0.30;;;;;;;19.12;36.82;103201.50;5118169;27;20417;-36
2022/01/14 09:30:41;;;;;;;0.20;0.20;;;;;;;19.12;36.78;103196.00;5115294;27;20438;-36
2022/01/14 09:33:07;;;;;;;0.20;0.20;;;;;;;19.13;36.67;103204.06;5114123;27;20129;-33
2022/01/14 09:35:33;;;;;;;0.20;0.20;;;;;;;19.14;36.74;103196.63;5117641;27;21012;-37
2022/01/14 09:37:59;;;;;;;0.20;0.20;;;;;;;19.14;37.01;103208.53;5115497;27;20360;-34
2022/01/14 09:40:26;;;;;;;0.20;0.20;;;;;;;19.15;36.74;103221.25;5114378;27;20047;-39
2022/01/14 09:42:53;;;;;;;0.20;0.20;;;;;;;19.16;36.45;103209.13;5091227;27;20064;-35
2022/01/14 09:45:19;;;;;;;0.20;0.20;;;;;;;19.17;36.72;103215.50;5100922;28;20047;-34
2022/01/14 09:47:48;;;;;;;0.30;0.30;;;;;;;19.18;36.73;103214.44;5119014;27;20062;-39
2022/01/14 09:50:13;;;;;;;0.20;0.20;;;;;;;19.20;36.84;103235.22;5111395;27;20043;-40
2022/01/14 09:52:39;;;;;;;0.20;0.20;;;;;;;19.21;36.63;103223.13;5113055;27;20709;-35
2022/01/14 09:55:05;;;;;;;0.20;0.20;;;;;;;19.21;36.66;103234.19;5110913;27;20050;-35
2022/01/14 09:57:30;;;;;;;0.30;0.30;;;;;;;19.22;36.52;103241.38;5112402;27;20477;-35
2022/01/14 09:59:56;;;;;;;0.20;0.20;;;;;;;19.23;36.67;103243.06;5117557;27;20511;-35
2022/01/14 10:02:35;;;;;;;0.20;0.20;;;;;;;19.25;36.60;103242.84;5109243;27;20054;-38
2022/01/14 10:05:02;;;;;;;0.20;0.20;;;;;;;19.25;36.95;103253.88;5111150;27;20047;-36
2022/01/14 10:07:28;;;;;;;0.20;0.20;;;;;;;19.25;36.57;103249.19;5116328;27;20073;-40
2022/01/14 10:10:00;;;;;;;0.20;0.20;;;;;;;19.26;36.82;103244.56;5115836;27;20481;-37
2022/01/14 10:12:30;;;;;;;0.20;0.20;;;;;;;19.27;36.56;103244.31;5113106;27;20073;-41
2022/01/14 10:14:58;;;;;;;0.20;0.20;;;;;;;19.30;36.25;103246.63;5096533;27;20106;-48
2022/01/14 10:17:25;;;;;;;0.20;0.20;;;;;;;19.41;36.39;103253.31;5117172;27;20921;-37
2022/01/14 10:19:51;;;;;;;0.20;0.20;;;;;;;19.41;36.64;103252.47;5093277;28;20047;-38
2022/01/14 10:22:24;;;;;;;0.20;0.20;;;;;;;19.38;36.73;103245.47;5099927;27;21127;-37
2022/01/14 10:24:55;;;;;;;0.20;0.20;;;;;;;19.36;36.69;103247.63;5090554;27;20758;-36
2022/01/14 10:27:56;;;;;;;0.20;0.20;;;;;;;19.37;36.94;103245.72;5091048;27;20408;-39
2022/01/14 10:30:28;;;;;;;0.20;0.20;;;;;;;19.37;36.67;103234.66;5100944;27;20618;-39
2022/01/14 10:33:05;;;;;;;0.20;0.20;;;;;;;19.37;36.66;103235.50;5096767;27;20044;-39
2022/01/14 10:35:36;;;;;;;0.20;0.20;;;;;;;19.38;36.66;103233.59;5097284;27;20051;-40
2022/01/14 10:38:05;;;;;;;0.20;0.20;;;;;;;19.38;36.62;103222.53;5084436;27;20046;-39
2022/01/14 10:40:33;;;;;;;0.20;0.20;;;;;;;19.40;36.73;103220.41;5109557;27;20045;-38
2022/01/14 10:43:02;;;;;;;0.20;0.20;;;;;;;19.42;36.34;103209.97;5098664;27;20051;-48
2022/01/14 10:45:49;;;;;;;0.20;0.20;;;;;;;19.47;35.84;103208.22;5078184;27;20062;-40
2022/01/14 10:48:17;;;;;;;0.20;0.20;;;;;;;19.51;36.46;103203.91;5113490;27;20108;-43
2022/01/14 10:53:24;;;;;;;0.20;0.20;;;;;;;19.54;36.08;103208.97;5145715;27;20202;-36
2022/01/14 10:55:52;;;;;;;0.20;0.20;;;;;;;19.52;36.44;103204.78;5111210;27;20041;-37
2022/01/14 10:58:24;;;;;;;0.20;0.20;;;;;;;19.51;36.34;103203.91;5128148;27;20524;-34
2022/01/14 11:00:55;;;;;;;0.20;0.20;;;;;;;19.52;36.58;103196.47;5122885;27;20043;-46
2022/01/14 11:03:38;;;;;;;0.20;0.20;;;;;;;19.51;36.46;103179.03;5091664;27;20403;-39
2022/01/14 11:06:24;;;;;;;0.20;0.20;;;;;;;19.52;36.66;103188.19;5107836;27;20151;-40
2022/01/14 11:09:03;;;;;;;0.20;0.20;;;;;;;19.52;36.48;103188.19;5093925;27;20342;-39
2022/01/14 11:11:30;;;;;;;0.20;0.20;;;;;;;19.52;36.82;103180.75;5105020;27;20043;-38
2022/01/14 11:13:56;;;;;;;0.10;0.10;;;;;;;19.57;36.22;103181.97;5116805;27;20540;-37
2022/01/14 11:16:22;;;;;;;0.20;0.20;;;;;;;19.61;36.65;103180.47;5122907;27;20076;-41
2022/01/14 11:18:48;;;;;;;0.20;0.20;;;;;;;19.61;36.65;103177.72;5124047;27;20095;-38
2022/01/14 11:24:04;;;;;;;0.20;0.20;;;;;;;19.57;36.78;103176.44;5116686;27;20047;-42
2022/01/14 11:26:35;;;;;;;0.20;0.20;;;;;;;19.58;36.78;103176.22;5107272;27;20504;-41
2022/01/14 11:29:11;;;;;;;0.20;0.20;;;;;;;19.59;36.63;103177.88;5128474;27;20042;-40
2022/01/14 11:31:37;;;;;;;0.20;0.20;;;;;;;19.58;36.53;103184.50;5123726;27;20044;-35
2022/01/14 11:34:05;;;;;;;0.22;0.22;;;;;;;19.59;36.75;103182.56;5125452;27;20513;-37
2022/01/14 11:36:54;;;;;;;0.20;0.20;;;;;;;19.59;36.62;103177.06;5125593;27;20046;-44
2022/01/14 11:39:21;;;;;;;;;;;;;;;19.59;36.58;103179.81;5097938;27;20107;-39
2022/01/14 11:41:51;;;;;;;0.17;0.17;;;;;;;19.60;36.64;103178.72;5121433;27;19927;-38
2022/01/14 11:53:04;;;;;;;0.20;0.20;;;;;;;19.61;36.67;103166.66;5141021;27;20668;-44